sensor_id;sensor_type;location;lat;lon;timestamp;temperature;humidity
2010;DHT22;1008;47.404;8.502;2023-07-31T00:01:36;19.00;99.90
2010;DHT22;1008;47.404;8.502;2023-07-31T00:04:03;18.80;99.90
2010;DHT22;1008;47.404;8.502;2023-07-31T00:06:30;18.80;99.90
2010;DHT22;1008;47.404;8.502;2023-07-31T00:08:57;18.80;99.90
2010;DHT22;1008;47.404;8.502;2023-07-31T00:11:25;18.70;99.90
2010;DHT22;1008;47.404;8.502;2023-07-31T00:13:52;18.60;99.90
2010;DHT22;1008;47.404;8.502;2023-07-31T00:16:19;18.60;99.90
2010;DHT22;1008;47.404;8.502;2023-07-31T00:18:46;18.60;99.90
2010;DHT22;1008;47.404;8.502;2023-07-31T00:21:13;18.60;99.90
2010;DHT22;1008;47.404;8.502;2023-07-31T00:23:39;18.60;99.90
2010;DHT22;1008;47.404;8.502;2023-07-31T00:26:07;18.60;99.90
2010;DHT22;1008;47.404;8.502;2023-07-31T00:28:35;18.60;99.90
2010;DHT22;1008;47.404;8.502;2023-07-31T00:31:02;18.60;99.90
2010;DHT22;1008;47.404;8.502;2023-07-31T00:33:30;18.60;99.90
2010;DHT22;1008;47.404;8.502;2023-07-31T00:35:57;18.70;99.90
2010;DHT22;1008;47.404;8.502;2023-07-31T00:38:24;18.80;99.90
2010;DHT22;1008;47.404;8.502;2023-07-31T00:40:50;18.80;99.90
2010;DHT22;1008;47.404;8.502;2023-07-31T00:43:17;18.90;99.90
2010;DHT22;1008;47.404;8.502;2023-07-31T00:45:45;18.90;99.90
2010;DHT22;1008;47.404;8.502;2023-07-31T00:48:12;18.80;99.90
2010;DHT22;1008;47.404;8.502;2023-07-31T00:50:39;18.90;99.90
2010;DHT22;1008;47.404;8.502;2023-07-31T00:53:06;18.80;99.90
2010;DHT22;1008;47.404;8.502;2023-07-31T00:55:33;18.80;99.90
2010;DHT22;1008;47.404;8.502;2023-07-31T00:57:59;18.90;99.90
2010;DHT22;1008;47.404;8.502;2023-07-31T01:00:26;18.80;99.90
2010;DHT22;1008;47.404;8.502;2023-07-31T01:02:54;18.80;99.90
2010;DHT22;1008;47.404;8.502;2023-07-31T01:05:27;18.90;99.90
2010;DHT22;1008;47.404;8.502;2023-07-31T01:08:01;18.60;99.90
2010;DHT22;1008;47.404;8.502;2023-07-31T01:10:34;18.50;99.90
2010;DHT22;1008;47.404;8.502;2023-07-31T01:13:03;18.40;99.90
2010;DHT22;1008;47.404;8.502;2023-07-31T01:15:31;18.40;99.90
2010;DHT22;1008;47.404;8.502;2023-07-31T01:17:59;18.20;99.90
2010;DHT22;1008;47.404;8.502;2023-07-31T01:20:26;18.10;99.90
2010;DHT22;1008;47.404;8.502;2023-07-31T01:23:12;18.20;99.90
2010;DHT22;1008;47.404;8.502;2023-07-31T01:25:54;18.20;99.90
2010;DHT22;1008;47.404;8.502;2023-07-31T01:28:27;18.20;99.90
2010;DHT22;1008;47.404;8.502;2023-07-31T01:30:58;18.30;99.90
2010;DHT22;1008;47.404;8.502;2023-07-31T01:33:25;18.40;99.90
2010;DHT22;1008;47.404;8.502;2023-07-31T01:35:52;18.40;99.90
2010;DHT22;1008;47.404;8.502;2023-07-31T01:38:21;18.50;99.90
2010;DHT22;1008;47.404;8.502;2023-07-31T01:40:52;18.50;99.90
2010;DHT22;1008;47.404;8.502;2023-07-31T01:43:19;18.60;99.90
2010;DHT22;1008;47.404;8.502;2023-07-31T01:45:46;18.60;99.90
2010;DHT22;1008;47.404;8.502;2023-07-31T01:48:13;18.60;99.90
2010;DHT22;1008;47.404;8.502;2023-07-31T01:50:40;18.60;99.90
2010;DHT22;1008;47.404;8.502;2023-07-31T01:53:06;18.60;99.90
2010;DHT22;1008;47.404;8.502;2023-07-31T01:55:33;18.60;99.90
2010;DHT22;1008;47.404;8.502;2023-07-31T01:58:01;18.40;99.90
2010;DHT22;1008;47.404;8.502;2023-07-31T02:00:28;18.40;99.90
2010;DHT22;1008;47.404;8.502;2023-07-31T02:02:54;18.40;99.90
2010;DHT22;1008;47.404;8.502;2023-07-31T02:05:21;18.40;99.90
2010;DHT22;1008;47.404;8.502;2023-07-31T02:07:48;18.40;99.90
2010;DHT22;1008;47.404;8.502;2023-07-31T02:10:14;18.20;99.90
2010;DHT22;1008;47.404;8.502;2023-07-31T02:12:41;18.10;99.90
2010;DHT22;1008;47.404;8.502;2023-07-31T02:15:10;18.20;99.90
2010;DHT22;1008;47.404;8.502;2023-07-31T02:17:36;18.20;99.90
2010;DHT22;1008;47.404;8.502;2023-07-31T02:20:04;18.40;99.90
2010;DHT22;1008;47.404;8.502;2023-07-31T02:22:30;18.20;99.90
2010;DHT22;1008;47.404;8.502;2023-07-31T02:24:57;18.00;99.90
2010;DHT22;1008;47.404;8.502;2023-07-31T02:27:24;18.20;99.90
2010;DHT22;1008;47.404;8.502;2023-07-31T02:29:53;18.30;99.90
2010;DHT22;1008;47.404;8.502;2023-07-31T02:32:21;18.30;99.90
2010;DHT22;1008;47.404;8.502;2023-07-31T02:34:47;18.30;99.90
2010;DHT22;1008;47.404;8.502;2023-07-31T02:37:14;18.20;99.90
2010;DHT22;1008;47.404;8.502;2023-07-31T02:39:41;18.10;99.90
2010;DHT22;1008;47.404;8.502;2023-07-31T02:42:07;18.00;99.90
2010;DHT22;1008;47.404;8.502;2023-07-31T02:44:34;18.00;99.90
2010;DHT22;1008;47.404;8.502;2023-07-31T02:47:01;18.00;99.90
2010;DHT22;1008;47.404;8.502;2023-07-31T02:49:29;17.90;99.90
2010;DHT22;1008;47.404;8.502;2023-07-31T02:51:56;18.00;99.90
2010;DHT22;1008;47.404;8.502;2023-07-31T02:54:23;18.00;99.90
2010;DHT22;1008;47.404;8.502;2023-07-31T02:56:49;17.90;99.90
2010;DHT22;1008;47.404;8.502;2023-07-31T02:59:17;17.90;99.90
2010;DHT22;1008;47.404;8.502;2023-07-31T03:01:43;17.90;99.90
2010;DHT22;1008;47.404;8.502;2023-07-31T03:04:10;17.80;99.90
2010;DHT22;1008;47.404;8.502;2023-07-31T03:06:38;17.80;99.90
2010;DHT22;1008;47.404;8.502;2023-07-31T03:09:05;17.80;99.90
2010;DHT22;1008;47.404;8.502;2023-07-31T03:11:31;17.90;99.90
2010;DHT22;1008;47.404;8.502;2023-07-31T03:13:58;18.10;99.90
2010;DHT22;1008;47.404;8.502;2023-07-31T03:16:25;17.90;99.90
2010;DHT22;1008;47.404;8.502;2023-07-31T03:18:51;17.80;99.90
2010;DHT22;1008;47.404;8.502;2023-07-31T03:21:18;17.70;99.90
2010;DHT22;1008;47.404;8.502;2023-07-31T03:23:46;17.80;99.90
2010;DHT22;1008;47.404;8.502;2023-07-31T03:26:13;17.90;99.90
2010;DHT22;1008;47.404;8.502;2023-07-31T03:28:39;17.80;99.90
2010;DHT22;1008;47.404;8.502;2023-07-31T03:31:06;17.80;99.90
2010;DHT22;1008;47.404;8.502;2023-07-31T03:33:33;17.80;99.90
2010;DHT22;1008;47.404;8.502;2023-07-31T03:36:00;17.80;99.90
2010;DHT22;1008;47.404;8.502;2023-07-31T03:38:27;17.80;99.90
2010;DHT22;1008;47.404;8.502;2023-07-31T03:40:55;17.70;99.90
2010;DHT22;1008;47.404;8.502;2023-07-31T03:43:24;17.80;99.90
2010;DHT22;1008;47.404;8.502;2023-07-31T03:45:51;17.80;99.90
2010;DHT22;1008;47.404;8.502;2023-07-31T03:48:17;17.70;99.90
2010;DHT22;1008;47.404;8.502;2023-07-31T03:50:44;17.80;99.90
2010;DHT22;1008;47.404;8.502;2023-07-31T03:53:11;17.80;99.90
2010;DHT22;1008;47.404;8.502;2023-07-31T03:55:38;17.80;99.90
2010;DHT22;1008;47.404;8.502;2023-07-31T03:58:06;17.80;99.90
2010;DHT22;1008;47.404;8.502;2023-07-31T04:00:32;17.80;99.90
2010;DHT22;1008;47.404;8.502;2023-07-31T04:02:59;17.80;99.90
2010;DHT22;1008;47.404;8.502;2023-07-31T04:05:26;18.10;99.90
2010;DHT22;1008;47.404;8.502;2023-07-31T04:07:52;17.80;99.90
2010;DHT22;1008;47.404;8.502;2023-07-31T04:10:19;17.80;99.90
2010;DHT22;1008;47.404;8.502;2023-07-31T04:12:46;17.70;99.90
2010;DHT22;1008;47.404;8.502;2023-07-31T04:15:14;17.80;99.90
2010;DHT22;1008;47.404;8.502;2023-07-31T04:17:41;17.80;99.90
2010;DHT22;1008;47.404;8.502;2023-07-31T04:20:08;18.00;99.90
2010;DHT22;1008;47.404;8.502;2023-07-31T04:22:35;17.80;99.90
2010;DHT22;1008;47.404;8.502;2023-07-31T04:25:02;17.90;99.90
2010;DHT22;1008;47.404;8.502;2023-07-31T04:27:28;17.90;99.90
2010;DHT22;1008;47.404;8.502;2023-07-31T04:29:55;17.90;99.90
2010;DHT22;1008;47.404;8.502;2023-07-31T04:32:23;17.90;99.90
2010;DHT22;1008;47.404;8.502;2023-07-31T04:34:50;18.00;99.90
2010;DHT22;1008;47.404;8.502;2023-07-31T04:37:16;17.90;99.90
2010;DHT22;1008;47.404;8.502;2023-07-31T04:39:43;17.90;99.90
2010;DHT22;1008;47.404;8.502;2023-07-31T04:42:09;17.90;99.90
2010;DHT22;1008;47.404;8.502;2023-07-31T04:44:36;17.90;99.90
2010;DHT22;1008;47.404;8.502;2023-07-31T04:47:03;17.90;99.90
2010;DHT22;1008;47.404;8.502;2023-07-31T04:49:31;18.00;99.90
2010;DHT22;1008;47.404;8.502;2023-07-31T04:51:58;18.10;99.90
2010;DHT22;1008;47.404;8.502;2023-07-31T04:54:25;18.10;99.90
2010;DHT22;1008;47.404;8.502;2023-07-31T04:56:51;18.00;99.90
2010;DHT22;1008;47.404;8.502;2023-07-31T04:59:18;18.00;99.90
2010;DHT22;1008;47.404;8.502;2023-07-31T05:01:45;17.90;99.90
2010;DHT22;1008;47.404;8.502;2023-07-31T05:04:12;17.90;99.90
2010;DHT22;1008;47.404;8.502;2023-07-31T05:06:41;17.90;99.90
2010;DHT22;1008;47.404;8.502;2023-07-31T05:09:07;18.00;99.90
2010;DHT22;1008;47.404;8.502;2023-07-31T05:11:34;18.10;99.90
2010;DHT22;1008;47.404;8.502;2023-07-31T05:14:01;18.00;99.90
2010;DHT22;1008;47.404;8.502;2023-07-31T05:16:28;18.00;99.90
2010;DHT22;1008;47.404;8.502;2023-07-31T05:18:54;17.80;99.90
2010;DHT22;1008;47.404;8.502;2023-07-31T05:21:21;17.90;99.90
2010;DHT22;1008;47.404;8.502;2023-07-31T05:23:49;18.10;99.90
2010;DHT22;1008;47.404;8.502;2023-07-31T05:26:16;18.20;99.90
2010;DHT22;1008;47.404;8.502;2023-07-31T05:28:43;18.40;99.90
2010;DHT22;1008;47.404;8.502;2023-07-31T05:31:09;18.10;99.90
2010;DHT22;1008;47.404;8.502;2023-07-31T05:33:36;18.20;99.90
2010;DHT22;1008;47.404;8.502;2023-07-31T05:36:03;18.00;99.90
2010;DHT22;1008;47.404;8.502;2023-07-31T05:38:29;17.80;99.90
2010;DHT22;1008;47.404;8.502;2023-07-31T05:40:57;17.80;99.90
2010;DHT22;1008;47.404;8.502;2023-07-31T05:43:24;18.00;99.90
2010;DHT22;1008;47.404;8.502;2023-07-31T05:45:51;17.80;99.90
2010;DHT22;1008;47.404;8.502;2023-07-31T05:48:18;18.00;99.90
2010;DHT22;1008;47.404;8.502;2023-07-31T05:50:44;18.00;99.90
2010;DHT22;1008;47.404;8.502;2023-07-31T05:53:12;18.10;99.90
2010;DHT22;1008;47.404;8.502;2023-07-31T05:55:38;18.30;99.90
2010;DHT22;1008;47.404;8.502;2023-07-31T05:58:06;18.40;99.90
2010;DHT22;1008;47.404;8.502;2023-07-31T06:00:33;18.40;99.90
2010;DHT22;1008;47.404;8.502;2023-07-31T06:03:00;18.30;99.90
2010;DHT22;1008;47.404;8.502;2023-07-31T06:05:26;18.20;99.90
2010;DHT22;1008;47.404;8.502;2023-07-31T06:07:55;18.50;99.90
2010;DHT22;1008;47.404;8.502;2023-07-31T06:10:22;18.60;99.90
2010;DHT22;1008;47.404;8.502;2023-07-31T06:12:48;18.60;99.90
2010;DHT22;1008;47.404;8.502;2023-07-31T06:15:16;18.70;99.90
2010;DHT22;1008;47.404;8.502;2023-07-31T06:17:44;18.90;99.90
2010;DHT22;1008;47.404;8.502;2023-07-31T06:20:11;18.70;99.90
2010;DHT22;1008;47.404;8.502;2023-07-31T06:22:38;18.90;99.90
2010;DHT22;1008;47.404;8.502;2023-07-31T06:25:05;18.80;99.90
2010;DHT22;1008;47.404;8.502;2023-07-31T06:27:32;18.80;99.90
2010;DHT22;1008;47.404;8.502;2023-07-31T06:29:59;18.50;99.90
2010;DHT22;1008;47.404;8.502;2023-07-31T06:32:27;18.30;99.90
2010;DHT22;1008;47.404;8.502;2023-07-31T06:34:53;18.40;99.90
2010;DHT22;1008;47.404;8.502;2023-07-31T06:37:20;18.50;99.90
2010;DHT22;1008;47.404;8.502;2023-07-31T06:39:47;18.40;99.90
2010;DHT22;1008;47.404;8.502;2023-07-31T06:42:13;18.40;99.90
2010;DHT22;1008;47.404;8.502;2023-07-31T06:44:40;18.50;99.90
2010;DHT22;1008;47.404;8.502;2023-07-31T06:47:07;18.70;99.90
2010;DHT22;1008;47.404;8.502;2023-07-31T06:49:35;18.90;99.90
2010;DHT22;1008;47.404;8.502;2023-07-31T06:52:02;18.70;99.90
2010;DHT22;1008;47.404;8.502;2023-07-31T06:54:29;18.80;99.90
2010;DHT22;1008;47.404;8.502;2023-07-31T06:56:55;19.00;99.90
2010;DHT22;1008;47.404;8.502;2023-07-31T06:59:22;19.00;99.90
2010;DHT22;1008;47.404;8.502;2023-07-31T07:01:49;19.10;99.90
2010;DHT22;1008;47.404;8.502;2023-07-31T07:04:15;19.40;99.90
2010;DHT22;1008;47.404;8.502;2023-07-31T07:06:43;19.10;99.90
2010;DHT22;1008;47.404;8.502;2023-07-31T07:09:10;18.90;99.90
2010;DHT22;1008;47.404;8.502;2023-07-31T07:11:37;19.00;99.90
2010;DHT22;1008;47.404;8.502;2023-07-31T07:14:03;18.90;99.90
2010;DHT22;1008;47.404;8.502;2023-07-31T07:16:30;19.20;99.90
2010;DHT22;1008;47.404;8.502;2023-07-31T07:18:57;19.10;99.90
2010;DHT22;1008;47.404;8.502;2023-07-31T07:21:24;19.10;99.90
2010;DHT22;1008;47.404;8.502;2023-07-31T07:23:52;19.20;99.90
2010;DHT22;1008;47.404;8.502;2023-07-31T07:26:19;19.30;99.90
2010;DHT22;1008;47.404;8.502;2023-07-31T07:28:46;19.60;99.90
2010;DHT22;1008;47.404;8.502;2023-07-31T07:31:12;19.70;99.90
2010;DHT22;1008;47.404;8.502;2023-07-31T07:33:39;19.60;99.90
2010;DHT22;1008;47.404;8.502;2023-07-31T07:36:06;19.50;99.90
2010;DHT22;1008;47.404;8.502;2023-07-31T07:38:35;19.50;99.90
2010;DHT22;1008;47.404;8.502;2023-07-31T07:41:03;19.50;99.90
2010;DHT22;1008;47.404;8.502;2023-07-31T07:43:30;19.70;99.90
2010;DHT22;1008;47.404;8.502;2023-07-31T07:45:57;19.90;99.90
2010;DHT22;1008;47.404;8.502;2023-07-31T07:48:23;19.70;99.90
2010;DHT22;1008;47.404;8.502;2023-07-31T07:50:50;19.70;99.90
2010;DHT22;1008;47.404;8.502;2023-07-31T07:53:17;19.50;99.90
2010;DHT22;1008;47.404;8.502;2023-07-31T07:55:44;19.60;99.90
2010;DHT22;1008;47.404;8.502;2023-07-31T07:58:12;19.60;99.90
2010;DHT22;1008;47.404;8.502;2023-07-31T08:00:38;19.80;99.90
2010;DHT22;1008;47.404;8.502;2023-07-31T08:03:06;19.70;99.90
2010;DHT22;1008;47.404;8.502;2023-07-31T08:05:32;19.60;99.90
2010;DHT22;1008;47.404;8.502;2023-07-31T08:08:00;19.80;99.90
2010;DHT22;1008;47.404;8.502;2023-07-31T08:10:26;19.90;99.90
2010;DHT22;1008;47.404;8.502;2023-07-31T08:12:53;19.90;99.90
2010;DHT22;1008;47.404;8.502;2023-07-31T08:15:21;19.60;99.90
2010;DHT22;1008;47.404;8.502;2023-07-31T08:17:48;19.40;99.90
2010;DHT22;1008;47.404;8.502;2023-07-31T08:20:15;19.60;99.90
2010;DHT22;1008;47.404;8.502;2023-07-31T08:22:41;19.60;99.90
2010;DHT22;1008;47.404;8.502;2023-07-31T08:25:08;19.80;99.90
2010;DHT22;1008;47.404;8.502;2023-07-31T08:27:35;20.00;99.90
2010;DHT22;1008;47.404;8.502;2023-07-31T08:30:02;20.20;99.90
2010;DHT22;1008;47.404;8.502;2023-07-31T08:32:30;20.30;99.90
2010;DHT22;1008;47.404;8.502;2023-07-31T08:34:56;20.20;99.90
2010;DHT22;1008;47.404;8.502;2023-07-31T08:37:23;20.10;99.90
2010;DHT22;1008;47.404;8.502;2023-07-31T08:39:50;20.10;99.90
2010;DHT22;1008;47.404;8.502;2023-07-31T08:42:16;20.10;99.90
2010;DHT22;1008;47.404;8.502;2023-07-31T08:44:43;20.10;99.90
2010;DHT22;1008;47.404;8.502;2023-07-31T08:47:11;20.00;99.90
2010;DHT22;1008;47.404;8.502;2023-07-31T08:49:41;20.00;99.90
2010;DHT22;1008;47.404;8.502;2023-07-31T08:52:08;19.70;99.90
2010;DHT22;1008;47.404;8.502;2023-07-31T08:54:36;19.70;99.90
2010;DHT22;1008;47.404;8.502;2023-07-31T08:57:04;19.90;99.90
2010;DHT22;1008;47.404;8.502;2023-07-31T08:59:31;20.20;99.90
2010;DHT22;1008;47.404;8.502;2023-07-31T09:02:03;20.50;99.90
2010;DHT22;1008;47.404;8.502;2023-07-31T09:04:31;20.50;99.90
2010;DHT22;1008;47.404;8.502;2023-07-31T09:07:01;20.70;99.90
2010;DHT22;1008;47.404;8.502;2023-07-31T09:09:29;20.70;99.90
2010;DHT22;1008;47.404;8.502;2023-07-31T09:11:57;20.50;99.90
2010;DHT22;1008;47.404;8.502;2023-07-31T09:14:25;20.30;99.90
2010;DHT22;1008;47.404;8.502;2023-07-31T09:16:53;20.20;99.90
2010;DHT22;1008;47.404;8.502;2023-07-31T09:19:27;20.30;99.90
2010;DHT22;1008;47.404;8.502;2023-07-31T09:21:54;20.50;99.90
2010;DHT22;1008;47.404;8.502;2023-07-31T09:24:30;20.80;99.90
2010;DHT22;1008;47.404;8.502;2023-07-31T09:26:58;21.20;99.90
2010;DHT22;1008;47.404;8.502;2023-07-31T09:29:26;21.30;99.90
2010;DHT22;1008;47.404;8.502;2023-07-31T09:31:53;21.10;99.90
2010;DHT22;1008;47.404;8.502;2023-07-31T09:34:21;21.30;99.90
2010;DHT22;1008;47.404;8.502;2023-07-31T09:36:54;21.20;99.90
2010;DHT22;1008;47.404;8.502;2023-07-31T09:39:21;21.10;99.90
2010;DHT22;1008;47.404;8.502;2023-07-31T09:41:55;21.20;99.90
2010;DHT22;1008;47.404;8.502;2023-07-31T09:44:22;21.20;99.90
2010;DHT22;1008;47.404;8.502;2023-07-31T09:47:03;21.10;99.90
2010;DHT22;1008;47.404;8.502;2023-07-31T09:49:30;21.20;99.90
2010;DHT22;1008;47.404;8.502;2023-07-31T09:51:57;21.50;99.90
2010;DHT22;1008;47.404;8.502;2023-07-31T09:54:23;21.50;99.90
2010;DHT22;1008;47.404;8.502;2023-07-31T09:56:52;21.70;99.90
2010;DHT22;1008;47.404;8.502;2023-07-31T09:59:20;21.70;99.90
2010;DHT22;1008;47.404;8.502;2023-07-31T10:01:48;21.60;99.90
2010;DHT22;1008;47.404;8.502;2023-07-31T10:04:17;21.70;99.90
2010;DHT22;1008;47.404;8.502;2023-07-31T10:06:47;22.00;99.90
2010;DHT22;1008;47.404;8.502;2023-07-31T10:09:16;22.20;99.90
2010;DHT22;1008;47.404;8.502;2023-07-31T10:11:47;22.30;99.90
2010;DHT22;1008;47.404;8.502;2023-07-31T10:14:18;21.70;99.90
2010;DHT22;1008;47.404;8.502;2023-07-31T10:16:46;21.60;99.90
2010;DHT22;1008;47.404;8.502;2023-07-31T10:19:14;21.20;99.90
2010;DHT22;1008;47.404;8.502;2023-07-31T10:21:41;21.30;99.90
2010;DHT22;1008;47.404;8.502;2023-07-31T10:24:09;21.60;99.90
2010;DHT22;1008;47.404;8.502;2023-07-31T10:26:37;22.00;99.90
2010;DHT22;1008;47.404;8.502;2023-07-31T10:29:05;21.90;99.90
2010;DHT22;1008;47.404;8.502;2023-07-31T10:31:35;22.00;99.90
2010;DHT22;1008;47.404;8.502;2023-07-31T10:34:02;22.10;99.90
2010;DHT22;1008;47.404;8.502;2023-07-31T10:36:29;22.30;99.90
2010;DHT22;1008;47.404;8.502;2023-07-31T10:38:56;22.30;99.90
2010;DHT22;1008;47.404;8.502;2023-07-31T10:41:29;22.60;99.90
2010;DHT22;1008;47.404;8.502;2023-07-31T10:43:57;22.40;98.70
2010;DHT22;1008;47.404;8.502;2023-07-31T10:46:24;22.20;99.00
2010;DHT22;1008;47.404;8.502;2023-07-31T10:48:58;21.80;98.10
2010;DHT22;1008;47.404;8.502;2023-07-31T10:51:32;22.20;99.90
2010;DHT22;1008;47.404;8.502;2023-07-31T10:54:10;22.00;99.50
2010;DHT22;1008;47.404;8.502;2023-07-31T10:56:38;22.00;99.60
2010;DHT22;1008;47.404;8.502;2023-07-31T10:59:05;22.30;98.90
2010;DHT22;1008;47.404;8.502;2023-07-31T11:01:49;22.50;98.80
2010;DHT22;1008;47.404;8.502;2023-07-31T11:04:22;22.70;98.20
2010;DHT22;1008;47.404;8.502;2023-07-31T11:06:55;22.90;97.50
2010;DHT22;1008;47.404;8.502;2023-07-31T11:09:22;23.00;97.40
2010;DHT22;1008;47.404;8.502;2023-07-31T11:11:49;22.80;97.10
2010;DHT22;1008;47.404;8.502;2023-07-31T11:14:17;22.90;96.10
2010;DHT22;1008;47.404;8.502;2023-07-31T11:16:44;22.80;95.40
2010;DHT22;1008;47.404;8.502;2023-07-31T11:19:11;22.90;96.30
2010;DHT22;1008;47.404;8.502;2023-07-31T11:21:39;22.90;94.10
2010;DHT22;1008;47.404;8.502;2023-07-31T11:24:06;22.80;95.90
2010;DHT22;1008;47.404;8.502;2023-07-31T11:26:33;23.00;95.30
2010;DHT22;1008;47.404;8.502;2023-07-31T11:29:00;23.10;94.80
2010;DHT22;1008;47.404;8.502;2023-07-31T11:31:26;23.40;94.60
2010;DHT22;1008;47.404;8.502;2023-07-31T11:34:04;23.40;93.50
2010;DHT22;1008;47.404;8.502;2023-07-31T11:36:31;23.50;93.20
2010;DHT22;1008;47.404;8.502;2023-07-31T11:39:06;23.80;94.80
2010;DHT22;1008;47.404;8.502;2023-07-31T11:41:32;24.00;93.10
2010;DHT22;1008;47.404;8.502;2023-07-31T11:43:59;23.80;91.60
2010;DHT22;1008;47.404;8.502;2023-07-31T11:46:26;23.40;92.60
2010;DHT22;1008;47.404;8.502;2023-07-31T11:48:59;23.30;91.70
2010;DHT22;1008;47.404;8.502;2023-07-31T11:51:27;23.30;92.20
2010;DHT22;1008;47.404;8.502;2023-07-31T11:53:57;23.40;91.50
2010;DHT22;1008;47.404;8.502;2023-07-31T11:56:26;23.90;91.20
2010;DHT22;1008;47.404;8.502;2023-07-31T11:58:57;24.00;91.60
2010;DHT22;1008;47.404;8.502;2023-07-31T12:01:25;24.00;90.00
2010;DHT22;1008;47.404;8.502;2023-07-31T12:03:53;23.90;89.90
2010;DHT22;1008;47.404;8.502;2023-07-31T12:06:20;24.20;90.20
2010;DHT22;1008;47.404;8.502;2023-07-31T12:08:47;24.10;87.70
2010;DHT22;1008;47.404;8.502;2023-07-31T12:11:14;24.40;90.10
2010;DHT22;1008;47.404;8.502;2023-07-31T12:13:44;24.70;90.20
2010;DHT22;1008;47.404;8.502;2023-07-31T12:16:11;24.90;87.20
2010;DHT22;1008;47.404;8.502;2023-07-31T12:18:38;24.40;84.60
2010;DHT22;1008;47.404;8.502;2023-07-31T12:21:07;24.10;83.30
2010;DHT22;1008;47.404;8.502;2023-07-31T12:23:35;24.40;83.50
2010;DHT22;1008;47.404;8.502;2023-07-31T12:26:03;24.60;83.60
2010;DHT22;1008;47.404;8.502;2023-07-31T12:28:30;24.20;81.10
2010;DHT22;1008;47.404;8.502;2023-07-31T12:31:00;24.30;83.20
2010;DHT22;1008;47.404;8.502;2023-07-31T12:33:31;24.30;82.70
2010;DHT22;1008;47.404;8.502;2023-07-31T12:36:00;24.50;80.90
2010;DHT22;1008;47.404;8.502;2023-07-31T12:38:27;24.70;82.60
2010;DHT22;1008;47.404;8.502;2023-07-31T12:40:54;24.70;81.40
2010;DHT22;1008;47.404;8.502;2023-07-31T12:43:21;24.70;80.40
2010;DHT22;1008;47.404;8.502;2023-07-31T12:45:47;24.90;80.30
2010;DHT22;1008;47.404;8.502;2023-07-31T12:48:15;25.20;79.60
2010;DHT22;1008;47.404;8.502;2023-07-31T12:50:42;25.20;79.20
2010;DHT22;1008;47.404;8.502;2023-07-31T12:53:09;25.10;79.90
2010;DHT22;1008;47.404;8.502;2023-07-31T12:55:35;25.20;82.50
2010;DHT22;1008;47.404;8.502;2023-07-31T12:58:03;25.40;80.70
2010;DHT22;1008;47.404;8.502;2023-07-31T13:00:30;25.50;78.00
2010;DHT22;1008;47.404;8.502;2023-07-31T13:02:56;25.60;72.60
2010;DHT22;1008;47.404;8.502;2023-07-31T13:05:24;25.50;73.00
2010;DHT22;1008;47.404;8.502;2023-07-31T13:07:51;25.20;73.50
2010;DHT22;1008;47.404;8.502;2023-07-31T13:10:18;25.00;73.80
2010;DHT22;1008;47.404;8.502;2023-07-31T13:12:44;25.00;73.20
2010;DHT22;1008;47.404;8.502;2023-07-31T13:15:12;25.10;73.50
2010;DHT22;1008;47.404;8.502;2023-07-31T13:17:39;25.40;73.20
2010;DHT22;1008;47.404;8.502;2023-07-31T13:20:06;25.50;72.40
2010;DHT22;1008;47.404;8.502;2023-07-31T13:22:35;25.90;70.90
2010;DHT22;1008;47.404;8.502;2023-07-31T13:25:01;25.60;69.20
2010;DHT22;1008;47.404;8.502;2023-07-31T13:27:28;25.30;70.70
2010;DHT22;1008;47.404;8.502;2023-07-31T13:29:55;25.10;70.50
2010;DHT22;1008;47.404;8.502;2023-07-31T13:32:21;25.00;72.30
2010;DHT22;1008;47.404;8.502;2023-07-31T13:34:48;25.00;72.90
2010;DHT22;1008;47.404;8.502;2023-07-31T13:37:15;24.70;70.10
2010;DHT22;1008;47.404;8.502;2023-07-31T13:39:44;24.50;72.60
2010;DHT22;1008;47.404;8.502;2023-07-31T13:42:10;24.70;70.30
2010;DHT22;1008;47.404;8.502;2023-07-31T13:44:37;24.70;72.40
2010;DHT22;1008;47.404;8.502;2023-07-31T13:47:04;24.70;73.50
2010;DHT22;1008;47.404;8.502;2023-07-31T13:49:32;24.60;74.90
2010;DHT22;1008;47.404;8.502;2023-07-31T13:52:00;24.50;75.10
2010;DHT22;1008;47.404;8.502;2023-07-31T13:54:26;24.60;77.40
2010;DHT22;1008;47.404;8.502;2023-07-31T13:56:54;24.80;78.00
2010;DHT22;1008;47.404;8.502;2023-07-31T13:59:21;24.90;78.20
2010;DHT22;1008;47.404;8.502;2023-07-31T14:01:48;25.00;78.70
2010;DHT22;1008;47.404;8.502;2023-07-31T14:04:15;24.80;78.70
2010;DHT22;1008;47.404;8.502;2023-07-31T14:06:43;24.70;80.00
2010;DHT22;1008;47.404;8.502;2023-07-31T14:09:09;24.50;81.50
2010;DHT22;1008;47.404;8.502;2023-07-31T14:11:36;24.70;83.40
2010;DHT22;1008;47.404;8.502;2023-07-31T14:14:04;24.70;80.10
2010;DHT22;1008;47.404;8.502;2023-07-31T14:16:31;24.70;82.30
2010;DHT22;1008;47.404;8.502;2023-07-31T14:18:57;24.60;82.50
2010;DHT22;1008;47.404;8.502;2023-07-31T14:21:25;24.50;82.40
2010;DHT22;1008;47.404;8.502;2023-07-31T14:23:52;24.70;83.00
2010;DHT22;1008;47.404;8.502;2023-07-31T14:26:18;24.50;81.50
2010;DHT22;1008;47.404;8.502;2023-07-31T14:28:45;24.70;84.50
2010;DHT22;1008;47.404;8.502;2023-07-31T14:31:13;24.80;83.80
2010;DHT22;1008;47.404;8.502;2023-07-31T14:33:40;24.90;82.40
2010;DHT22;1008;47.404;8.502;2023-07-31T14:36:06;25.00;83.80
2010;DHT22;1008;47.404;8.502;2023-07-31T14:38:33;25.00;81.30
2010;DHT22;1008;47.404;8.502;2023-07-31T14:41:00;25.20;85.40
2010;DHT22;1008;47.404;8.502;2023-07-31T14:43:26;25.20;85.30
2010;DHT22;1008;47.404;8.502;2023-07-31T14:45:53;25.20;84.80
2010;DHT22;1008;47.404;8.502;2023-07-31T14:48:22;25.10;84.70
2010;DHT22;1008;47.404;8.502;2023-07-31T14:50:49;25.50;87.70
2010;DHT22;1008;47.404;8.502;2023-07-31T14:53:16;25.80;86.00
2010;DHT22;1008;47.404;8.502;2023-07-31T14:55:43;26.10;85.50
2010;DHT22;1008;47.404;8.502;2023-07-31T14:58:09;26.50;89.30
2010;DHT22;1008;47.404;8.502;2023-07-31T15:00:36;26.60;86.70
2010;DHT22;1008;47.404;8.502;2023-07-31T15:03:03;26.60;81.60
2010;DHT22;1008;47.404;8.502;2023-07-31T15:05:31;26.60;81.00
2010;DHT22;1008;47.404;8.502;2023-07-31T15:07:58;26.50;82.60
2010;DHT22;1008;47.404;8.502;2023-07-31T15:10:24;26.50;84.70
2010;DHT22;1008;47.404;8.502;2023-07-31T15:12:51;26.80;85.80
2010;DHT22;1008;47.404;8.502;2023-07-31T15:15:18;26.70;81.30
2010;DHT22;1008;47.404;8.502;2023-07-31T15:17:44;26.40;80.80
2010;DHT22;1008;47.404;8.502;2023-07-31T15:20:11;26.40;82.40
2010;DHT22;1008;47.404;8.502;2023-07-31T15:22:39;26.10;84.70
2010;DHT22;1008;47.404;8.502;2023-07-31T15:25:07;26.00;86.80
2010;DHT22;1008;47.404;8.502;2023-07-31T15:27:34;26.30;86.00
2010;DHT22;1008;47.404;8.502;2023-07-31T15:30:01;26.60;84.60
2010;DHT22;1008;47.404;8.502;2023-07-31T15:32:30;26.60;81.60
2010;DHT22;1008;47.404;8.502;2023-07-31T15:34:57;26.50;81.60
2010;DHT22;1008;47.404;8.502;2023-07-31T15:37:23;26.30;85.30
2010;DHT22;1008;47.404;8.502;2023-07-31T15:39:51;26.30;84.90
2010;DHT22;1008;47.404;8.502;2023-07-31T15:42:18;26.50;86.50
2010;DHT22;1008;47.404;8.502;2023-07-31T15:44:45;26.70;87.10
2010;DHT22;1008;47.404;8.502;2023-07-31T15:47:12;26.70;86.50
2010;DHT22;1008;47.404;8.502;2023-07-31T15:49:38;26.50;87.50
2010;DHT22;1008;47.404;8.502;2023-07-31T15:52:06;26.50;83.50
2010;DHT22;1008;47.404;8.502;2023-07-31T15:54:32;26.50;85.70
2010;DHT22;1008;47.404;8.502;2023-07-31T15:57:00;26.60;86.10
2010;DHT22;1008;47.404;8.502;2023-07-31T15:59:27;26.50;86.90
2010;DHT22;1008;47.404;8.502;2023-07-31T16:01:54;26.60;87.60
2010;DHT22;1008;47.404;8.502;2023-07-31T16:04:20;26.50;88.10